createdAt,value
2018-04-23T00:00:14.713Z,0
2018-04-23T00:01:13.496Z,0
2018-04-23T00:02:13.242Z,0
2018-04-23T00:03:13.501Z,0
2018-04-23T00:04:13.226Z,0
2018-04-23T00:05:14.811Z,0
2018-04-23T00:06:13.475Z,0
2018-04-23T00:07:13.475Z,0
2018-04-23T00:08:13.233Z,0
2018-04-23T00:09:13.726Z,0
2018-04-23T00:10:14.267Z,0
2018-04-23T00:11:13.240Z,0
2018-04-23T00:12:13.743Z,0
2018-04-23T00:13:14.548Z,0
2018-04-23T00:14:13.501Z,0
2018-04-23T00:15:15.371Z,0
2018-04-23T00:16:13.245Z,0
2018-04-23T00:17:13.248Z,0
2018-04-23T00:18:13.743Z,0
2018-04-23T00:19:13.503Z,0
2018-04-23T00:20:16.457Z,0
2018-04-23T00:21:13.505Z,0
2018-04-23T00:22:13.509Z,0
2018-04-23T00:23:13.340Z,0
2018-04-23T00:24:13.556Z,0
2018-04-23T00:25:15.506Z,0
2018-04-23T00:26:13.508Z,0
2018-04-23T00:27:13.260Z,0
2018-04-23T00:28:13.777Z,0
2018-04-23T00:29:13.273Z,0
2018-04-23T00:30:15.370Z,0
2018-04-23T00:31:13.516Z,0
2018-04-23T00:32:13.554Z,0
2018-04-23T00:33:13.537Z,0
2018-04-23T00:34:13.273Z,0
2018-04-23T00:35:15.281Z,0
2018-04-23T00:36:13.536Z,0
2018-04-23T00:37:13.296Z,0
2018-04-23T00:38:13.592Z,0
2018-04-23T00:39:13.275Z,0
2018-04-23T00:40:15.226Z,0
2018-04-23T00:41:13.280Z,0
2018-04-23T00:42:13.294Z,0
2018-04-23T00:43:14.527Z,0
2018-04-23T00:44:13.305Z,0
2018-04-23T00:45:15.330Z,0
2018-04-23T00:46:13.802Z,0
2018-04-23T00:47:13.535Z,0
2018-04-23T00:48:13.062Z,0
2018-04-23T00:49:13.601Z,0
2018-04-23T00:50:14.898Z,0
2018-04-23T00:51:13.561Z,0
2018-04-23T00:52:13.560Z,0
2018-04-23T00:53:13.601Z,0
2018-04-23T00:54:14.167Z,0
2018-04-23T00:55:15.282Z,0
2018-04-23T00:56:13.810Z,0
2018-04-23T00:57:13.569Z,0
2018-04-23T00:58:13.802Z,0
2018-04-23T00:59:15.171Z,0
2018-04-23T01:00:15.641Z,0
2018-04-23T01:01:13.821Z,0
2018-04-23T01:02:13.313Z,0
2018-04-23T01:03:13.809Z,0
2018-04-23T01:04:13.573Z,0
2018-04-23T01:05:14.816Z,0
2018-04-23T01:06:13.325Z,0
2018-04-23T01:07:13.318Z,0
2018-04-23T01:08:13.823Z,0
2018-04-23T01:09:13.340Z,0
2018-04-23T01:10:14.914Z,0
2018-04-23T01:11:13.820Z,0
2018-04-23T01:12:13.576Z,0
2018-04-23T01:13:13.814Z,0
2018-04-23T01:14:14.801Z,0
2018-04-23T01:15:15.052Z,0
2018-04-23T01:16:13.585Z,0
2018-04-23T01:17:13.828Z,0
2018-04-23T01:18:13.331Z,0
2018-04-23T01:19:13.836Z,0
2018-04-23T01:20:16.053Z,0
2018-04-23T01:21:13.835Z,0
2018-04-23T01:22:13.830Z,0
2018-04-23T01:23:13.585Z,0
2018-04-23T01:24:13.399Z,0
2018-04-23T01:25:15.125Z,0
2018-04-23T01:26:13.349Z,0
2018-04-23T01:27:13.846Z,0
2018-04-23T01:28:13.651Z,0
2018-04-23T01:29:13.620Z,0
2018-04-23T01:30:15.741Z,0
2018-04-23T01:31:13.341Z,0
2018-04-23T01:32:13.626Z,0
2018-04-23T01:33:13.909Z,0
2018-04-23T01:34:13.352Z,0
2018-04-23T01:35:15.915Z,0
2018-04-23T01:36:13.634Z,0
2018-04-23T01:37:13.354Z,0
2018-04-23T01:38:13.625Z,0
2018-04-23T01:39:13.386Z,0
2018-04-23T01:40:15.741Z,0
2018-04-23T01:41:13.881Z,0
2018-04-23T01:42:13.878Z,0
2018-04-23T01:43:13.876Z,0
2018-04-23T01:44:14.409Z,0
2018-04-23T01:45:15.282Z,0
2018-04-23T01:46:13.881Z,0
2018-04-23T01:47:13.370Z,0
2018-04-23T01:48:13.390Z,0
2018-04-23T01:49:12.872Z,0
2018-04-23T01:50:15.070Z,0
2018-04-23T01:51:13.888Z,0
2018-04-23T01:52:13.899Z,0
2018-04-23T01:53:13.879Z,0
2018-04-23T01:54:13.650Z,0
2018-04-23T01:55:15.478Z,0
2018-04-23T01:56:13.892Z,0
2018-04-23T01:57:13.900Z,0
2018-04-23T01:58:13.647Z,0
2018-04-23T01:59:13.539Z,0
2018-04-23T02:00:16.054Z,0
2018-04-23T02:01:13.969Z,0
2018-04-23T02:02:13.907Z,0
2018-04-23T02:03:13.406Z,0
2018-04-23T02:04:13.903Z,0
2018-04-23T02:05:15.038Z,0
2018-04-23T02:06:13.402Z,0
2018-04-23T02:07:13.650Z,0
2018-04-23T02:08:13.904Z,0
2018-04-23T02:09:13.666Z,0
2018-04-23T02:10:15.876Z,0
2018-04-23T02:11:13.667Z,0
2018-04-23T02:12:13.420Z,0
2018-04-23T02:13:13.673Z,0
2018-04-23T02:14:15.175Z,0
2018-04-23T02:15:15.479Z,0
2018-04-23T02:16:14.178Z,0
2018-04-23T02:17:13.909Z,0
2018-04-23T02:18:13.681Z,0
2018-04-23T02:19:13.672Z,0
2018-04-23T02:20:15.455Z,0
2018-04-23T02:21:13.916Z,0
2018-04-23T02:22:13.914Z,0
2018-04-23T02:23:13.674Z,0
2018-04-23T02:24:13.664Z,0
2018-04-23T02:25:15.925Z,0
2018-04-23T02:26:13.684Z,0
2018-04-23T02:27:13.668Z,0
2018-04-23T02:28:13.671Z,0
2018-04-23T02:29:13.700Z,0
2018-04-23T02:30:15.973Z,0
2018-04-23T02:31:13.739Z,0
2018-04-23T02:32:13.924Z,0
2018-04-23T02:33:13.678Z,0
2018-04-23T02:34:13.927Z,0
2018-04-23T02:35:15.741Z,0
2018-04-23T02:36:14.041Z,0
2018-04-23T02:37:13.670Z,0
2018-04-23T02:38:13.932Z,0
2018-04-23T02:39:13.684Z,0
2018-04-23T02:40:15.440Z,0
2018-04-23T02:41:13.689Z,0
2018-04-23T02:42:13.935Z,0
2018-04-23T02:43:13.427Z,0
2018-04-23T02:44:13.435Z,0
2018-04-23T02:45:17.582Z,0
2018-04-23T02:46:13.933Z,0
2018-04-23T02:47:13.694Z,0
2018-04-23T02:48:13.682Z,0
2018-04-23T02:49:13.439Z,0
2018-04-23T02:50:15.813Z,0
2018-04-23T02:51:13.716Z,0
2018-04-23T02:52:13.940Z,0
2018-04-23T02:53:13.708Z,0
2018-04-23T02:54:13.941Z,0
2018-04-23T02:55:15.092Z,0
2018-04-23T02:56:13.946Z,0
2018-04-23T02:57:13.699Z,0
2018-04-23T02:58:13.700Z,0
2018-04-23T02:59:13.947Z,0
2018-04-23T03:00:16.898Z,0
2018-04-23T03:01:13.730Z,0
2018-04-23T03:02:13.952Z,0
2018-04-23T03:03:13.954Z,0
2018-04-23T03:04:13.964Z,0
2018-04-23T03:05:15.408Z,0
2018-04-23T03:06:13.707Z,0
2018-04-23T03:07:13.459Z,0
2018-04-23T03:08:13.454Z,0
2018-04-23T03:09:13.954Z,0
2018-04-23T03:10:16.038Z,0
2018-04-23T03:11:13.721Z,0
2018-04-23T03:12:13.466Z,0
2018-04-23T03:13:13.714Z,0
2018-04-23T03:14:13.707Z,0
2018-04-23T03:15:15.938Z,0
2018-04-23T03:16:13.704Z,0
2018-04-23T03:17:13.466Z,0
2018-04-23T03:18:13.729Z,0
2018-04-23T03:19:13.960Z,0
2018-04-23T03:20:16.116Z,0
2018-04-23T03:21:13.729Z,0
2018-04-23T03:22:13.972Z,0
2018-04-23T03:23:13.216Z,0
2018-04-23T03:24:13.725Z,0
2018-04-23T03:25:15.630Z,0
2018-04-23T03:26:13.731Z,0
2018-04-23T03:27:13.730Z,0
2018-04-23T03:28:13.735Z,0
2018-04-23T03:29:13.978Z,0
2018-04-23T03:37:33.379Z,0
2018-04-23T03:37:56.055Z,0
2018-04-23T03:38:56.288Z,0
2018-04-23T03:39:56.596Z,0
2018-04-23T03:40:56.555Z,0
2018-04-23T03:41:56.344Z,0
2018-04-23T03:42:56.544Z,0
2018-04-23T03:43:56.542Z,0
2018-04-23T03:44:56.060Z,0
2018-04-23T03:45:56.550Z,0
2018-04-23T03:46:56.567Z,0
2018-04-23T03:47:56.542Z,0
2018-04-23T03:48:56.544Z,0
2018-04-23T03:49:56.555Z,0
2018-04-23T03:50:56.305Z,0
2018-04-23T03:51:56.060Z,0
2018-04-23T03:52:56.299Z,0
2018-04-23T03:53:56.063Z,0
2018-04-23T03:54:56.543Z,0
2018-04-23T03:55:56.566Z,0
2018-04-23T03:56:56.058Z,0
2018-04-23T03:57:56.062Z,0
2018-04-23T03:58:56.300Z,0
2018-04-23T03:59:56.321Z,0
2018-04-23T04:00:56.303Z,0
2018-04-23T04:01:56.310Z,0
2018-04-23T04:02:56.303Z,0
2018-04-23T04:03:56.306Z,0
2018-04-23T04:04:56.563Z,0
2018-04-23T04:05:56.567Z,0
2018-04-23T04:06:56.307Z,0
2018-04-23T04:07:56.305Z,0
2018-04-23T04:08:56.322Z,0
2018-04-23T04:09:56.308Z,0
2018-04-23T04:10:56.328Z,0
2018-04-23T04:11:55.811Z,0
2018-04-23T04:12:56.568Z,0
2018-04-23T04:13:56.327Z,0
2018-04-23T04:14:56.309Z,0
2018-04-23T04:15:56.332Z,0
2018-04-23T04:16:56.449Z,0
2018-04-23T04:17:56.568Z,0
2018-04-23T04:18:56.572Z,0
2018-04-23T04:19:56.081Z,0
2018-04-23T04:20:56.563Z,5
2018-04-23T04:21:56.070Z,5
2018-04-23T04:22:56.321Z,5
2018-04-23T04:23:56.573Z,5
2018-04-23T04:24:56.676Z,5
2018-04-23T04:25:56.581Z,5
2018-04-23T04:26:56.079Z,5
2018-04-23T04:27:56.086Z,10
2018-04-23T04:28:56.347Z,10
2018-04-23T04:29:56.577Z,10
2018-04-23T04:30:56.330Z,10
2018-04-23T04:31:56.338Z,10
2018-04-23T04:32:56.586Z,10
2018-04-23T04:33:56.336Z,15
2018-04-23T04:34:56.595Z,15
2018-04-23T04:35:56.336Z,15
2018-04-23T04:36:56.329Z,15
2018-04-23T04:37:56.586Z,15
2018-04-23T04:38:56.588Z,20
2018-04-23T04:39:56.346Z,20
2018-04-23T04:40:56.593Z,20
2018-04-23T04:41:56.341Z,20
2018-04-23T04:42:56.346Z,25
2018-04-23T04:43:56.792Z,25
2018-04-23T04:44:56.637Z,25
2018-04-23T04:45:56.355Z,25
2018-04-23T04:46:56.609Z,30
2018-04-23T04:47:56.591Z,30
2018-04-23T04:48:56.616Z,30
2018-04-23T04:49:56.356Z,35
2018-04-23T04:50:56.347Z,35
2018-04-23T04:51:56.121Z,35
2018-04-23T04:52:59.609Z,40
2018-04-23T04:53:56.371Z,40
2018-04-23T04:54:56.371Z,40
2018-04-23T04:55:56.357Z,40
2018-04-23T04:56:56.360Z,40
2018-04-23T04:57:56.609Z,40
2018-04-23T04:58:55.863Z,45
2018-04-23T04:59:56.115Z,55
2018-04-23T05:00:56.353Z,50
2018-04-23T05:01:56.105Z,55
2018-04-23T05:02:56.362Z,55
2018-04-23T05:03:55.864Z,55
2018-04-23T05:04:56.658Z,60
2018-04-23T05:05:56.834Z,65
2018-04-23T05:06:56.616Z,65
2018-04-23T05:07:56.665Z,60
2018-04-23T05:08:56.379Z,60
2018-04-23T05:09:56.647Z,65
2018-04-23T05:10:56.381Z,65
2018-04-23T05:11:56.575Z,65
2018-04-23T05:12:56.137Z,70
2018-04-23T05:13:56.124Z,75
2018-04-23T05:14:56.120Z,75
2018-04-23T05:15:56.382Z,75
2018-04-23T05:16:56.629Z,80
2018-04-23T05:17:56.385Z,80
2018-04-23T05:18:56.399Z,85
2018-04-23T05:19:56.142Z,85
2018-04-23T05:20:56.154Z,85
2018-04-23T05:21:56.666Z,90
2018-04-23T05:22:56.606Z,95
2018-04-23T05:23:56.359Z,100
2018-04-23T05:24:56.390Z,105
2018-04-23T05:25:56.140Z,110
2018-04-23T05:26:56.641Z,110
2018-04-23T05:27:56.656Z,115
2018-04-23T05:28:56.414Z,120
2018-04-23T05:29:55.928Z,125
2018-04-23T05:30:56.657Z,130
2018-04-23T05:31:56.517Z,135
2018-04-23T05:32:56.655Z,145
2018-04-23T05:33:56.162Z,160
2018-04-23T05:34:56.420Z,160
2018-04-23T05:35:56.406Z,165
2018-04-23T05:36:56.404Z,165
2018-04-23T05:37:56.714Z,170
2018-04-23T05:38:56.406Z,170
2018-04-23T05:39:56.402Z,180
2018-04-23T05:40:56.164Z,180
2018-04-23T05:41:56.443Z,180
2018-04-23T05:42:56.168Z,185
2018-04-23T05:43:56.438Z,185
2018-04-23T05:44:55.920Z,185
2018-04-23T05:45:56.428Z,180
2018-04-23T05:46:56.688Z,175
2018-04-23T05:47:56.683Z,175
2018-04-23T05:48:56.689Z,165
2018-04-23T05:49:56.189Z,160
2018-04-23T05:50:56.688Z,150
2018-04-23T05:51:56.697Z,150
2018-04-23T05:52:57.945Z,150
2018-04-23T05:53:56.201Z,155
2018-04-23T05:54:55.956Z,155
2018-04-23T05:55:56.704Z,155
2018-04-23T05:56:56.457Z,150
2018-04-23T05:57:56.709Z,145
2018-04-23T05:58:56.483Z,140
2018-04-23T05:59:56.473Z,145
2018-04-23T06:00:56.477Z,150
2018-04-23T06:01:56.729Z,155
2018-04-23T06:02:56.490Z,140
2018-04-23T06:03:56.748Z,115
2018-04-23T06:04:56.241Z,105
2018-04-23T06:05:56.734Z,100
2018-04-23T06:06:56.499Z,90
2018-04-23T06:07:56.513Z,95
2018-04-23T06:08:56.897Z,90
2018-04-23T06:09:56.756Z,90
2018-04-23T06:10:56.262Z,90
2018-04-23T06:11:56.515Z,90
2018-04-23T06:12:56.265Z,90
2018-04-23T06:22:08.966Z,115
2018-04-23T06:23:08.975Z,115
2018-04-23T06:24:08.720Z,115
2018-04-23T06:25:08.719Z,120
2018-04-23T06:26:08.966Z,125
2018-04-23T06:27:08.464Z,125
2018-04-23T06:28:09.090Z,125
2018-04-23T06:29:08.986Z,130
2018-04-23T06:30:09.158Z,130
2018-04-23T06:31:08.995Z,130
2018-04-23T06:32:08.736Z,135
2018-04-23T06:33:08.735Z,135
2018-04-23T06:34:08.770Z,140
2018-04-23T06:35:08.509Z,145
2018-04-23T06:36:08.748Z,150
2018-04-23T06:37:08.992Z,150
2018-04-23T06:38:09.000Z,155
2018-04-23T06:39:08.740Z,155
2018-04-23T06:40:09.076Z,160
2018-04-23T06:41:08.747Z,160
2018-04-23T06:42:09.064Z,165
2018-04-23T06:43:09.012Z,165
2018-04-23T06:44:09.069Z,160
2018-04-23T06:45:09.410Z,160
2018-04-23T06:46:08.529Z,155
2018-04-23T06:47:08.527Z,155
2018-04-23T06:48:09.029Z,150
2018-04-23T06:49:08.530Z,150
2018-04-23T06:50:09.376Z,150
2018-04-23T06:51:08.769Z,150
2018-04-23T06:52:09.027Z,155
2018-04-23T06:53:08.539Z,150
2018-04-23T06:54:08.297Z,150
2018-04-23T06:55:09.441Z,155
2018-04-23T06:56:08.797Z,155
2018-04-23T06:57:11.290Z,155
2018-04-23T06:58:08.288Z,160
2018-04-23T06:59:09.239Z,165
2018-04-23T07:00:09.217Z,170
2018-04-23T07:01:08.568Z,180
2018-04-23T07:02:09.065Z,180
2018-04-23T07:03:08.817Z,185
2018-04-23T07:04:08.814Z,190
2018-04-23T07:05:09.754Z,190
2018-04-23T07:06:08.807Z,190
2018-04-23T07:07:08.832Z,200
2018-04-23T07:08:08.567Z,195
2018-04-23T07:09:08.823Z,200
2018-04-23T07:10:09.284Z,210
2018-04-23T07:11:08.826Z,215
2018-04-23T07:12:09.929Z,200
2018-04-23T07:13:08.833Z,205
2018-04-23T07:14:08.843Z,205
2018-04-23T07:15:09.190Z,205
2018-04-23T07:16:08.871Z,225
2018-04-23T07:17:09.488Z,200
2018-04-23T07:18:08.848Z,195
2018-04-23T07:19:09.099Z,190
2018-04-23T07:20:09.504Z,190
2018-04-23T07:21:09.102Z,190
2018-04-23T07:22:09.270Z,195
2018-04-23T07:23:08.876Z,200
2018-04-23T07:24:09.380Z,210
2018-04-23T07:25:09.226Z,220
2018-04-23T07:26:08.649Z,230
2018-04-23T07:27:14.689Z,235
2018-04-23T07:28:08.882Z,240
2018-04-23T07:29:08.886Z,245
2018-04-23T07:30:09.491Z,255
2018-04-23T07:31:09.149Z,255
2018-04-23T07:32:08.895Z,260
2018-04-23T07:33:09.150Z,250
2018-04-23T07:34:08.899Z,250
2018-04-23T07:35:09.549Z,250
2018-04-23T07:36:08.919Z,255
2018-04-23T07:37:08.925Z,260
2018-04-23T07:38:08.939Z,255
2018-04-23T07:39:08.931Z,250
2018-04-23T07:40:09.020Z,245
2018-04-23T07:41:08.685Z,245
2018-04-23T07:42:08.970Z,250
2018-04-23T07:43:08.526Z,250
2018-04-23T07:44:08.943Z,260
2018-04-23T07:45:09.060Z,290
2018-04-23T07:46:08.952Z,300
2018-04-23T07:47:09.205Z,275
2018-04-23T07:48:09.213Z,285
2018-04-23T07:49:08.728Z,305
2018-04-23T07:50:09.665Z,285
2018-04-23T07:51:08.729Z,280
2018-04-23T07:52:08.999Z,280
2018-04-23T07:53:09.259Z,290
2018-04-23T07:54:09.054Z,305
2018-04-23T07:55:09.404Z,305
2018-04-23T07:56:09.016Z,305
2018-04-23T07:57:09.055Z,300
2018-04-23T07:58:11.168Z,315
2018-04-23T07:59:08.767Z,325
2018-04-23T08:00:09.563Z,325
2018-04-23T08:01:09.282Z,315
2018-04-23T08:02:09.297Z,305
2018-04-23T08:03:09.099Z,295
2018-04-23T08:04:09.036Z,290
2018-04-23T08:05:09.282Z,285
2018-04-23T08:06:09.300Z,285
2018-04-23T08:07:09.071Z,285
2018-04-23T08:08:09.313Z,285
2018-04-23T08:09:09.060Z,285
2018-04-23T08:10:08.776Z,285
2018-04-23T08:11:08.855Z,285
2018-04-23T08:12:09.351Z,280
2018-04-23T08:13:09.198Z,270
2018-04-23T08:14:09.342Z,280
2018-04-23T08:15:09.221Z,300
2018-04-23T08:16:09.110Z,340
2018-04-23T08:17:08.852Z,275
2018-04-23T08:18:09.349Z,290
2018-04-23T08:19:08.871Z,330
2018-04-23T08:20:09.556Z,305
2018-04-23T08:21:09.126Z,305
2018-04-23T08:22:09.124Z,315
2018-04-23T08:23:09.528Z,270
2018-04-23T08:24:08.881Z,260
2018-04-23T08:25:09.604Z,265
2018-04-23T08:26:08.893Z,255
2018-04-23T08:27:08.903Z,235
2018-04-23T08:28:12.001Z,215
2018-04-23T08:29:08.905Z,195
2018-04-23T08:30:09.602Z,180
2018-04-23T08:31:09.166Z,170
2018-04-23T08:32:09.582Z,160
2018-04-23T08:33:09.678Z,145
2018-04-23T08:34:09.434Z,130
2018-04-23T08:35:09.594Z,120
2018-04-23T08:36:09.456Z,105
2018-04-23T08:37:08.950Z,95
2018-04-23T08:38:09.509Z,85
2018-04-23T08:39:08.979Z,75
2018-04-23T08:40:09.352Z,65
2018-04-23T08:41:09.219Z,60
2018-04-23T08:42:09.218Z,55
2018-04-23T08:43:12.528Z,55
2018-04-23T08:44:09.328Z,55
2018-04-23T08:45:09.664Z,60
2018-04-23T08:46:09.473Z,65
2018-04-23T08:47:09.234Z,65
2018-04-23T08:48:09.396Z,70
2018-04-23T08:49:09.330Z,70
2018-04-23T08:50:09.982Z,70
2018-04-23T08:51:09.498Z,75
2018-04-23T08:52:09.246Z,85
2018-04-23T08:53:08.998Z,100
2018-04-23T08:54:09.497Z,115
2018-04-23T08:55:09.379Z,120
2018-04-23T08:56:09.497Z,115
2018-04-23T08:57:09.001Z,110
2018-04-23T08:58:09.502Z,115
2018-04-23T08:59:11.320Z,120
2018-04-23T09:00:09.885Z,130
2018-04-23T09:01:09.287Z,135
2018-04-23T09:02:09.272Z,140
2018-04-23T09:03:09.285Z,140
2018-04-23T09:04:09.637Z,145
2018-04-23T09:05:09.784Z,150
2018-04-23T09:06:09.300Z,150
2018-04-23T09:07:09.538Z,160
2018-04-23T09:08:09.045Z,165
2018-04-23T09:09:09.952Z,180
2018-04-23T09:10:09.452Z,195
2018-04-23T09:11:09.309Z,205
2018-04-23T09:12:09.317Z,220
2018-04-23T09:13:09.299Z,230
2018-04-23T09:14:09.443Z,230
2018-04-23T09:15:10.016Z,230
2018-04-23T09:16:09.314Z,230
2018-04-23T09:17:09.309Z,230
2018-04-23T09:18:08.562Z,230
2018-04-23T09:19:09.472Z,230
2018-04-23T09:20:10.017Z,230
2018-04-23T09:21:09.342Z,230
2018-04-23T09:22:09.325Z,235
2018-04-23T09:23:09.592Z,240
2018-04-23T09:24:09.527Z,250
2018-04-23T09:25:09.524Z,255
2018-04-23T09:26:09.591Z,260
2018-04-23T09:27:09.112Z,255
2018-04-23T09:28:09.399Z,240
2018-04-23T09:29:11.908Z,220
2018-04-23T09:30:09.803Z,215
2018-04-23T09:31:09.360Z,210
2018-04-23T09:32:09.612Z,210
2018-04-23T09:33:09.623Z,215
2018-04-23T09:34:09.619Z,225
2018-04-23T09:35:10.088Z,235
2018-04-23T09:36:09.398Z,245
2018-04-23T09:37:09.631Z,250
2018-04-23T09:38:09.127Z,255
2018-04-23T09:39:09.837Z,270
2018-04-23T09:40:09.852Z,290
2018-04-23T09:41:09.391Z,305
2018-04-23T09:42:09.639Z,320
2018-04-23T09:43:09.146Z,325
2018-04-23T09:44:09.446Z,330
2018-04-23T09:45:09.566Z,330
2018-04-23T09:46:08.900Z,330
2018-04-23T09:47:09.397Z,330
2018-04-23T09:48:09.659Z,335
2018-04-23T09:49:09.424Z,335
2018-04-23T09:50:09.934Z,335
2018-04-23T09:51:09.410Z,330
2018-04-23T09:52:09.675Z,330
2018-04-23T09:53:09.418Z,330
2018-04-23T09:54:09.696Z,330
2018-04-23T09:55:09.834Z,340
2018-04-23T09:56:09.460Z,340
2018-04-23T09:57:09.720Z,350
2018-04-23T09:58:09.186Z,345
2018-04-23T09:59:09.196Z,365
2018-04-23T10:00:11.786Z,380
2018-04-23T10:01:09.461Z,380
2018-04-23T10:02:09.756Z,380
2018-04-23T10:03:08.953Z,360
2018-04-23T10:04:09.742Z,355
2018-04-23T10:05:10.327Z,355
2018-04-23T10:06:09.347Z,360
2018-04-23T10:07:09.742Z,360
2018-04-23T10:08:09.219Z,345
2018-04-23T10:09:09.478Z,340
2018-04-23T10:10:10.187Z,335
2018-04-23T10:11:09.498Z,325
2018-04-23T10:12:09.565Z,320
2018-04-23T10:13:08.986Z,315
2018-04-23T10:14:09.280Z,310
2018-04-23T10:15:13.266Z,305
2018-04-23T10:16:09.257Z,305
2018-04-23T10:17:09.767Z,305
2018-04-23T10:18:09.776Z,300
2018-04-23T10:19:09.577Z,295
2018-04-23T10:20:10.590Z,295
2018-04-23T10:21:09.319Z,285
2018-04-23T10:22:09.534Z,280
2018-04-23T10:53:04.678Z,205
2018-04-23T10:54:04.617Z,210
2018-04-23T10:55:04.606Z,215
2018-04-23T10:56:05.142Z,215
2018-04-23T10:57:05.144Z,220
2018-04-23T10:58:04.883Z,230
2018-04-23T10:59:04.612Z,240
2018-04-23T11:00:04.366Z,240
2018-04-23T11:01:04.878Z,245
2018-04-23T11:02:04.999Z,245
2018-04-23T11:03:04.884Z,250
2018-04-23T11:04:05.141Z,245
2018-04-23T11:05:04.622Z,245
2018-04-23T11:06:05.144Z,240
2018-04-23T11:07:05.129Z,240
2018-04-23T11:08:05.915Z,240
2018-04-23T11:09:04.633Z,240
2018-04-23T11:10:04.641Z,245
2018-04-23T11:11:04.625Z,245
2018-04-23T11:12:04.886Z,250
2018-04-23T11:13:04.921Z,255
2018-04-23T11:14:04.903Z,270
2018-04-23T11:15:04.665Z,275
2018-04-23T11:16:04.648Z,290
2018-04-23T11:17:04.660Z,305
2018-04-23T11:18:04.683Z,310
2018-04-23T11:19:04.484Z,310
2018-04-23T11:20:04.928Z,315
2018-04-23T11:21:04.700Z,315
2018-04-23T11:22:04.660Z,315
2018-04-23T11:23:05.235Z,315
2018-04-23T11:24:04.938Z,315
2018-04-23T11:25:04.937Z,310
2018-04-23T11:26:04.959Z,310
2018-04-23T11:27:04.951Z,305
2018-04-23T11:28:04.962Z,300
2018-04-23T11:29:05.220Z,295
2018-04-23T11:30:04.988Z,280
2018-04-23T11:31:05.015Z,265
2018-04-23T11:32:04.953Z,255
2018-04-23T11:33:04.466Z,250
2018-04-23T11:34:04.472Z,240
2018-04-23T11:35:04.988Z,230
2018-04-23T11:36:05.228Z,225
2018-04-23T11:37:05.228Z,220
2018-04-23T11:38:08.255Z,215
2018-04-23T11:39:05.006Z,215
2018-04-23T11:40:05.037Z,215
2018-04-23T11:41:04.999Z,220
2018-04-23T11:42:05.263Z,225
2018-04-23T11:43:05.105Z,225
2018-04-23T11:44:05.318Z,225
2018-04-23T11:45:05.040Z,225
2018-04-23T11:46:05.048Z,230
2018-04-23T11:47:04.549Z,235
2018-04-23T11:48:05.107Z,235
2018-04-23T11:49:05.332Z,240
2018-04-23T11:50:05.058Z,240
2018-04-23T11:51:04.816Z,245
2018-04-23T11:52:04.785Z,250
2018-04-23T11:53:05.472Z,255
2018-04-23T11:54:05.058Z,260
2018-04-23T11:55:04.876Z,265
2018-04-23T11:56:04.816Z,270
2018-04-23T11:57:04.877Z,275
2018-04-23T11:58:05.057Z,280
2018-04-23T11:59:05.084Z,285
2018-04-23T12:00:05.096Z,290
2018-04-23T12:01:05.094Z,290
2018-04-23T12:02:04.822Z,285
2018-04-23T12:03:05.030Z,280
2018-04-23T12:04:04.850Z,270
2018-04-23T12:05:05.147Z,260
2018-04-23T12:06:04.887Z,245
2018-04-23T12:07:05.111Z,235
2018-04-23T12:08:07.609Z,225
2018-04-23T12:09:05.134Z,215
2018-04-23T12:10:05.131Z,205
2018-04-23T12:11:04.858Z,195
2018-04-23T12:12:05.357Z,185
2018-04-23T12:13:05.375Z,175
2018-04-23T12:14:04.867Z,165
2018-04-23T12:15:05.372Z,150
2018-04-23T12:16:05.181Z,145
2018-04-23T12:17:04.886Z,130
2018-04-23T12:18:05.958Z,115
2018-04-23T12:19:05.138Z,105
2018-04-23T12:20:04.653Z,105
2018-04-23T12:21:04.898Z,100
2018-04-23T12:22:04.912Z,95
2018-04-23T12:23:05.421Z,95
2018-04-23T12:24:05.412Z,90
2018-04-23T12:25:05.180Z,90
2018-04-23T12:26:05.417Z,85
2018-04-23T12:27:05.195Z,85
2018-04-23T12:28:04.935Z,80
2018-04-23T12:29:05.450Z,80
2018-04-23T12:30:05.433Z,80
2018-04-23T12:31:04.931Z,80
2018-04-23T12:32:04.977Z,80
2018-04-23T12:33:05.439Z,80
2018-04-23T12:34:05.195Z,80
2018-04-23T12:35:04.940Z,80
2018-04-23T12:36:04.963Z,85
2018-04-23T12:37:04.698Z,90
2018-04-23T12:38:04.967Z,95
2018-04-23T12:39:09.163Z,100
2018-04-23T12:40:05.450Z,100
2018-04-23T12:41:05.226Z,105
2018-04-23T12:42:04.967Z,105
2018-04-23T12:43:05.224Z,105
2018-04-23T12:44:04.720Z,105
2018-04-23T12:45:05.474Z,100
2018-04-23T12:46:04.866Z,100
2018-04-23T12:47:05.255Z,100
2018-04-23T12:48:05.240Z,100
2018-04-23T12:49:05.245Z,105
2018-04-23T12:50:05.485Z,100
2018-04-23T12:51:05.816Z,105
2018-04-23T12:52:05.261Z,105
2018-04-23T12:53:05.489Z,110
2018-04-23T12:54:05.251Z,115
2018-04-23T12:55:04.753Z,120
2018-04-23T12:56:05.248Z,120
2018-04-23T12:57:05.275Z,120
2018-04-23T12:58:05.266Z,120
2018-04-23T12:59:05.512Z,125
2018-04-23T13:00:05.505Z,125
2018-04-23T13:01:04.770Z,125
2018-04-23T13:02:05.040Z,125
2018-04-23T13:03:05.560Z,130
2018-04-23T13:04:05.286Z,130
2018-04-23T13:05:04.789Z,135
2018-04-23T13:06:04.521Z,140
2018-04-23T13:07:05.528Z,150
2018-04-23T13:08:05.547Z,160
2018-04-23T13:09:08.598Z,160
2018-04-23T13:10:05.296Z,165
2018-04-23T13:11:05.296Z,170
2018-04-23T13:12:05.319Z,180
2018-04-23T13:13:05.559Z,185
2018-04-23T13:14:05.110Z,190
2018-04-23T13:15:05.315Z,195
2018-04-23T13:16:05.299Z,200
2018-04-23T13:17:05.050Z,210
2018-04-23T13:18:05.319Z,220
2018-04-23T13:19:05.859Z,230
2018-04-23T13:20:05.551Z,240
2018-04-23T13:21:05.573Z,255
2018-04-23T13:22:05.561Z,270
2018-04-23T13:23:05.322Z,280
2018-04-23T13:24:05.356Z,285
2018-04-23T13:25:05.371Z,290
2018-04-23T13:26:05.323Z,295
2018-04-23T13:27:05.563Z,295
2018-04-23T13:28:05.582Z,290
2018-04-23T13:29:05.083Z,290
2018-04-23T13:30:05.338Z,290
2018-04-23T13:31:05.103Z,290
2018-04-23T13:32:05.346Z,300
2018-04-23T13:33:05.601Z,295
2018-04-23T13:34:05.101Z,295
2018-04-23T13:35:05.120Z,295
2018-04-23T13:36:05.182Z,285
2018-04-23T13:37:05.616Z,285
2018-04-23T13:38:05.628Z,275
2018-04-23T13:39:05.136Z,270
2018-04-23T13:40:06.266Z,265
2018-04-23T13:41:05.130Z,255
2018-04-23T13:42:05.382Z,250
2018-04-23T13:43:05.389Z,260
2018-04-23T13:44:05.627Z,250
2018-04-23T13:45:05.643Z,255
2018-04-23T13:46:05.150Z,260
2018-04-23T13:47:05.395Z,260
2018-04-23T13:48:05.391Z,260
2018-04-23T13:49:04.938Z,260
2018-04-23T13:50:05.207Z,255
2018-04-23T13:51:05.397Z,255
2018-04-23T13:52:05.653Z,255
2018-04-23T13:53:05.171Z,255
2018-04-23T13:54:05.202Z,255
2018-04-23T13:55:05.213Z,250
2018-04-23T13:56:05.661Z,245
2018-04-23T13:57:05.409Z,245
2018-04-23T13:58:05.676Z,250
2018-04-23T13:59:05.425Z,245
2018-04-23T14:00:05.685Z,255
2018-04-23T14:01:05.684Z,260
2018-04-23T14:02:05.681Z,255
2018-04-23T14:03:05.703Z,245
2018-04-23T14:04:05.429Z,235
2018-04-23T14:05:05.725Z,245
2018-04-23T14:06:05.458Z,240
2018-04-23T14:07:05.549Z,235
2018-04-23T14:08:05.505Z,225
2018-04-23T14:09:05.713Z,220
2018-04-23T14:10:06.034Z,220
2018-04-23T14:11:05.213Z,220
2018-04-23T14:12:05.518Z,215
2018-04-23T14:13:05.787Z,215
2018-04-23T14:14:05.491Z,215
2018-04-23T14:15:05.731Z,215
2018-04-23T14:16:05.500Z,215
2018-04-23T14:17:05.256Z,215
2018-04-23T14:18:05.747Z,215
2018-04-23T14:19:05.251Z,215
2018-04-23T14:20:05.740Z,210
2018-04-23T14:21:05.498Z,210
2018-04-23T14:22:05.267Z,205
2018-04-23T14:23:05.020Z,205
2018-04-23T14:24:05.915Z,205
2018-04-23T14:25:05.318Z,200
2018-04-23T14:26:05.518Z,205
2018-04-23T14:27:05.298Z,175
2018-04-23T14:28:05.281Z,185
2018-04-23T14:29:05.300Z,190
2018-04-23T14:30:05.561Z,195
2018-04-23T14:31:05.549Z,195
2018-04-23T14:32:05.850Z,195
2018-04-23T14:33:05.799Z,195
2018-04-23T14:34:05.539Z,190
2018-04-23T14:35:05.540Z,190
2018-04-23T14:36:05.797Z,185
2018-04-23T14:37:07.635Z,185
2018-04-23T14:38:07.915Z,185
2018-04-23T14:39:09.190Z,185
2018-04-23T14:40:15.112Z,185
2018-04-23T14:41:05.812Z,185
2018-04-23T14:42:05.574Z,185
2018-04-23T14:43:05.580Z,190
2018-04-23T14:44:05.086Z,195
2018-04-23T14:45:05.820Z,200
2018-04-23T14:46:05.827Z,210
2018-04-23T14:47:05.344Z,215
2018-04-23T14:48:05.616Z,215
2018-04-23T14:49:05.923Z,220
2018-04-23T14:50:05.916Z,215
2018-04-23T14:51:05.121Z,220
2018-04-23T14:52:05.607Z,220